Weather at Texas World Speedway Helistop Nr 1 Heliport

Public forecast

Using degrees Fahrenheit for public forecast. Weather courtesy of forecast.io.

Closest aviation weather report (METAR) to Texas World Speedway Helistop Nr 1 Heliport

Closest report is Easterwood Field, 7.9 nm (14.5 km) WNW. Retrieved 2020/09/27 02:53 UTC (33 minutes ago):

KCLL 270253Z 16007KT 10SM CLR 25/20 A2985 RMK AO2 SLP102 T02500200 53005

Closest aviation forecast (TAF) to Texas World Speedway Helistop Nr 1 Heliport

Closest forecast is Easterwood Field, 7.9 nm (14.5 km) WNW. Retrieved 2020-09-27 00:30 UTC (3 hours ago):

TAF KCLL 262327Z 2700/2724 16006KT P6SM FEW050 FM271000 16005KT 6SM BR SCT008 BKN015 FM271400 18008KT P6SM BKN015 BKN025 FM271600 18010KT P6SM FEW015 SCT030 FM271800 18012KT P6SM SCT050 SCT250